createdAt,value
2022-09-09T00:02:28.604Z,16.36
2022-09-09T00:05:02.561Z,16.16
2022-09-09T00:07:45.783Z,16.33
2022-09-09T00:10:21.583Z,16.43
2022-09-09T00:12:57.732Z,16.40
2022-09-09T00:15:32.770Z,16.45
2022-09-09T00:18:11.395Z,16.44
2022-09-09T00:20:48.278Z,16.43
2022-09-09T00:23:25.763Z,16.41
2022-09-09T00:26:05.023Z,16.44
2022-09-09T00:28:39.012Z,16.39
2022-09-09T00:31:16.119Z,16.33
2022-09-09T00:33:46.968Z,16.21
2022-09-09T00:36:18.814Z,16.05
2022-09-09T00:38:52.420Z,16.11
2022-09-09T00:41:28.599Z,16.18
2022-09-09T00:44:05.557Z,16.14
2022-09-09T00:46:56.898Z,16.07
2022-09-09T00:49:37.078Z,16.12
2022-09-09T00:52:19.474Z,15.98
2022-09-09T00:54:56.711Z,16.05
2022-09-09T00:57:30.179Z,16.09
2022-09-09T01:00:18.769Z,16.09
2022-09-09T01:02:57.035Z,15.99
2022-09-09T01:05:32.934Z,16.05
2022-09-09T01:08:03.936Z,15.91
2022-09-09T01:10:43.826Z,15.89
2022-09-09T01:13:21.659Z,15.92
2022-09-09T01:15:57.351Z,15.92
2022-09-09T01:18:35.813Z,15.52
2022-09-09T01:21:17.015Z,15.74
2022-09-09T01:24:08.259Z,15.69
2022-09-09T01:26:53.992Z,15.75
2022-09-09T01:29:27.955Z,15.73
2022-09-09T01:31:58.657Z,15.71
2022-09-09T01:34:31.431Z,15.74
2022-09-09T01:37:05.774Z,15.70
2022-09-09T01:39:37.150Z,15.48
2022-09-09T01:42:14.494Z,15.38
2022-09-09T01:44:43.657Z,15.24
2022-09-09T01:47:12.786Z,15.18
2022-09-09T01:50:00.746Z,15.28
2022-09-09T01:52:33.563Z,15.37
2022-09-09T01:55:02.509Z,15.39
2022-09-09T01:57:48.840Z,15.36
2022-09-09T02:00:18.399Z,15.48
2022-09-09T02:03:03.000Z,15.49
2022-09-09T02:05:43.165Z,15.56
2022-09-09T02:08:26.436Z,15.58
2022-09-09T02:11:08.072Z,15.59
2022-09-09T02:13:46.297Z,15.48
2022-09-09T02:16:23.692Z,15.33
2022-09-09T02:18:57.980Z,15.40
2022-09-09T02:21:37.934Z,15.47
2022-09-09T02:24:11.492Z,15.45
2022-09-09T02:26:50.116Z,15.36
2022-09-09T02:29:24.153Z,15.12
2022-09-09T02:31:56.362Z,14.98
2022-09-09T02:34:33.033Z,14.85
2022-09-09T02:37:03.522Z,14.84
2022-09-09T02:39:32.526Z,14.92
2022-09-09T02:42:02.148Z,15.04
2022-09-09T02:44:35.719Z,15.04
2022-09-09T02:47:19.025Z,15.07
2022-09-09T02:50:00.542Z,15.09
2022-09-09T02:52:41.404Z,15.19
2022-09-09T02:55:19.609Z,15.19
2022-09-09T02:57:50.819Z,15.19
2022-09-09T03:00:27.169Z,15.26
2022-09-09T03:02:57.690Z,15.15
2022-09-09T03:05:27.358Z,15.16
2022-09-09T03:07:56.265Z,15.00
2022-09-09T03:10:25.888Z,14.90
2022-09-09T03:12:54.732Z,14.99
2022-09-09T03:15:23.583Z,14.98
2022-09-09T03:17:54.448Z,15.09
2022-09-09T03:20:24.437Z,15.09
2022-09-09T03:22:54.214Z,15.09
2022-09-09T03:25:24.873Z,15.10
2022-09-09T03:27:56.282Z,15.08
2022-09-09T03:30:27.412Z,15.11
2022-09-09T03:32:59.790Z,14.96
2022-09-09T03:35:33.239Z,15.00
2022-09-09T03:38:02.749Z,15.05
2022-09-09T03:40:34.389Z,14.87
2022-09-09T03:43:03.165Z,14.95
2022-09-09T03:45:32.004Z,14.88
2022-09-09T03:48:02.214Z,14.79
2022-09-09T03:50:33.347Z,14.74
2022-09-09T03:53:02.421Z,14.55
2022-09-09T03:55:31.278Z,14.36
2022-09-09T03:58:01.515Z,14.27
2022-09-09T04:00:31.735Z,14.17
2022-09-09T04:03:02.002Z,14.07
2022-09-09T04:05:30.985Z,14.14
2022-09-09T04:07:59.710Z,14.35
2022-09-09T04:10:29.859Z,14.45
2022-09-09T04:13:01.098Z,14.55
2022-09-09T04:15:30.395Z,14.62
2022-09-09T04:17:59.194Z,14.59
2022-09-09T04:20:29.549Z,14.73
2022-09-09T04:22:58.339Z,14.83
2022-09-09T04:25:27.202Z,14.81
2022-09-09T04:27:56.789Z,14.84
2022-09-09T04:30:28.514Z,14.90
2022-09-09T04:32:57.466Z,15.00
2022-09-09T04:35:26.308Z,15.05
2022-09-09T04:37:56.878Z,15.19
2022-09-09T04:40:26.440Z,15.15
2022-09-09T04:42:55.347Z,15.13
2022-09-09T04:45:24.088Z,15.18
2022-09-09T04:47:52.921Z,15.25
2022-09-09T04:50:22.217Z,15.48
2022-09-09T04:53:04.845Z,15.56
2022-09-09T04:55:35.016Z,15.73
2022-09-09T04:58:06.789Z,15.88
2022-09-09T05:00:36.655Z,16.13
2022-09-09T05:03:10.015Z,16.48
2022-09-09T05:05:39.574Z,16.98
2022-09-09T05:08:11.544Z,17.60
2022-09-09T05:10:43.033Z,18.21
2022-09-09T05:13:12.441Z,18.83
2022-09-09T05:15:41.487Z,19.44
2022-09-09T05:18:10.249Z,19.96
2022-09-09T05:20:39.246Z,20.56
2022-09-09T05:23:10.947Z,21.19
2022-09-09T05:25:40.370Z,21.82
2022-09-09T05:28:09.611Z,22.46
2022-09-09T05:30:38.352Z,23.01
2022-09-09T05:33:10.551Z,23.58
2022-09-09T05:35:40.356Z,24.01
2022-09-09T05:38:10.859Z,24.50
2022-09-09T05:40:39.886Z,24.90
2022-09-09T05:43:08.894Z,25.28
2022-09-09T05:45:37.887Z,25.76
2022-09-09T05:48:06.769Z,25.95
2022-09-09T05:50:35.567Z,25.49
2022-09-09T05:53:04.783Z,24.95
2022-09-09T05:55:35.082Z,24.04
2022-09-09T05:58:04.299Z,24.12
2022-09-09T06:00:33.232Z,23.68
2022-09-09T06:03:02.784Z,23.26
2022-09-09T06:05:31.646Z,22.97
2022-09-09T06:08:01.710Z,22.54
2022-09-09T06:10:30.527Z,22.44
2022-09-09T06:13:01.166Z,22.50
2022-09-09T06:15:31.828Z,22.44
2022-09-09T06:18:00.779Z,22.69
2022-09-09T06:20:31.771Z,22.87
2022-09-09T06:23:00.770Z,23.12
2022-09-09T06:25:29.877Z,23.16
2022-09-09T06:27:58.925Z,23.40
2022-09-09T06:30:29.255Z,23.43
2022-09-09T06:32:59.235Z,23.69
2022-09-09T06:35:28.024Z,23.80
2022-09-09T06:37:56.901Z,23.82
2022-09-09T06:40:25.798Z,23.68
2022-09-09T06:42:55.387Z,23.63
2022-09-09T06:45:37.775Z,23.99
2022-09-09T06:48:06.779Z,23.92
2022-09-09T06:50:36.115Z,24.01
2022-09-09T06:53:05.441Z,24.06
2022-09-09T06:55:34.415Z,23.99
2022-09-09T06:58:03.741Z,23.77
2022-09-09T07:00:32.968Z,23.80
2022-09-09T07:03:03.655Z,23.58
2022-09-09T07:05:32.575Z,23.59
2022-09-09T07:08:01.320Z,23.87
2022-09-09T07:10:30.221Z,23.89
2022-09-09T07:12:58.980Z,24.17
2022-09-09T07:15:28.385Z,24.35
2022-09-09T07:17:57.627Z,24.58
2022-09-09T07:20:27.878Z,24.70
2022-09-09T07:22:57.715Z,24.64
2022-09-09T07:25:27.934Z,24.46
2022-09-09T07:27:57.039Z,24.48
2022-09-09T07:30:27.981Z,24.34
2022-09-09T07:33:00.375Z,24.34
2022-09-09T07:35:31.058Z,24.32
2022-09-09T07:38:00.411Z,24.21
2022-09-09T07:40:30.230Z,24.01
2022-09-09T07:42:59.103Z,24.01
2022-09-09T07:45:29.517Z,23.88
2022-09-09T07:47:58.557Z,24.04
2022-09-09T07:50:27.975Z,23.90
2022-09-09T07:52:58.212Z,24.06
2022-09-09T07:55:29.258Z,24.02
2022-09-09T07:57:58.564Z,23.95
2022-09-09T08:00:29.695Z,23.98
2022-09-09T08:03:02.053Z,23.45
2022-09-09T08:05:31.443Z,23.59
2022-09-09T08:08:02.246Z,23.59
2022-09-09T08:10:31.486Z,23.44
2022-09-09T08:13:17.368Z,23.27
2022-09-09T08:15:47.389Z,23.36
2022-09-09T08:18:16.832Z,23.30
2022-09-09T08:20:47.474Z,23.17
2022-09-09T08:23:18.459Z,23.29
2022-09-09T08:25:47.657Z,23.33
2022-09-09T08:28:17.183Z,23.38
2022-09-09T08:30:49.230Z,23.57
2022-09-09T08:33:19.216Z,23.65
2022-09-09T08:35:53.442Z,23.76
2022-09-09T08:38:23.803Z,23.85
2022-09-09T08:41:02.278Z,23.95
2022-09-09T08:43:33.521Z,24.12
2022-09-09T08:46:11.328Z,24.27
2022-09-09T08:48:50.330Z,24.37
2022-09-09T08:51:19.445Z,24.60
2022-09-09T08:53:59.084Z,24.39
2022-09-09T08:56:30.779Z,24.51
2022-09-09T08:59:05.236Z,24.49
2022-09-09T09:02:00.066Z,24.53
2022-09-09T09:04:52.590Z,24.58
2022-09-09T09:07:33.009Z,24.38
2022-09-09T09:10:37.650Z,24.36
2022-09-09T09:13:05.601Z,24.32
2022-09-09T09:15:39.995Z,24.23
2022-09-09T09:18:15.274Z,24.12
2022-09-09T09:20:56.438Z,24.24
2022-09-09T09:23:27.786Z,24.13
2022-09-09T09:26:03.089Z,24.17
2022-09-09T09:28:35.151Z,23.91
2022-09-09T09:31:13.745Z,23.98
2022-09-09T09:33:51.075Z,23.92
2022-09-09T09:36:23.287Z,23.86
2022-09-09T09:41:50.555Z,23.72
2022-09-09T09:44:28.478Z,23.72
2022-09-09T09:47:09.564Z,23.69
2022-09-09T09:49:39.262Z,23.69
2022-09-09T09:52:09.525Z,23.67
2022-09-09T09:54:42.237Z,23.73
2022-09-09T09:57:13.568Z,23.73
2022-09-09T09:59:44.796Z,23.71
2022-09-09T10:02:24.380Z,23.73
2022-09-09T10:05:05.773Z,23.70
2022-09-09T10:07:38.475Z,23.67
2022-09-09T10:10:08.400Z,23.68
2022-09-09T10:12:52.396Z,23.68
2022-09-09T10:15:34.627Z,23.67
2022-09-09T10:18:21.318Z,23.70
2022-09-09T10:20:59.634Z,23.72
2022-09-09T10:23:45.352Z,23.78
2022-09-09T10:26:27.011Z,23.86
2022-09-09T10:29:17.598Z,23.96
2022-09-09T10:31:56.495Z,23.95
2022-09-09T10:34:44.332Z,23.99
2022-09-09T10:37:26.829Z,23.99
2022-09-09T10:40:04.769Z,23.94
2022-09-09T10:42:35.772Z,23.94
2022-09-09T10:45:19.592Z,23.94
2022-09-09T10:48:08.573Z,23.98
2022-09-09T10:51:07.099Z,24.06
2022-09-09T10:53:44.064Z,24.18
2022-09-09T10:56:16.285Z,24.26
2022-09-09T10:58:50.437Z,24.31
2022-09-09T11:01:25.038Z,24.44
2022-09-09T11:03:58.394Z,24.52
2022-09-09T11:06:33.844Z,24.70
2022-09-09T11:09:04.806Z,24.86
2022-09-09T11:11:39.296Z,25.12
2022-09-09T11:14:14.414Z,25.31
2022-09-09T11:16:50.737Z,25.39
2022-09-09T11:19:26.372Z,25.57
2022-09-09T11:21:56.186Z,25.68
2022-09-09T11:24:30.940Z,25.61
2022-09-09T11:27:05.306Z,25.74
2022-09-09T11:30:07.047Z,25.96
2022-09-09T11:33:07.419Z,26.00
2022-09-09T11:35:48.865Z,26.18
2022-09-09T11:38:23.866Z,26.46
2022-09-09T11:41:00.595Z,26.65
2022-09-09T11:43:33.198Z,26.72
2022-09-09T11:46:04.935Z,26.86
2022-09-09T11:48:39.902Z,26.94
2022-09-09T11:51:16.091Z,26.92
2022-09-09T11:53:53.855Z,27.09
2022-09-09T11:56:31.983Z,27.15
2022-09-09T11:59:04.930Z,27.07
2022-09-09T12:01:38.414Z,26.99
2022-09-09T12:04:24.812Z,27.24
2022-09-09T12:06:57.096Z,27.64
2022-09-09T12:09:31.376Z,28.16
2022-09-09T12:12:29.896Z,28.59
2022-09-09T12:15:04.404Z,28.77
2022-09-09T12:17:39.551Z,29.04
2022-09-09T12:20:16.539Z,29.18
2022-09-09T12:22:56.417Z,28.63
2022-09-09T12:25:33.283Z,28.39
2022-09-09T12:28:09.052Z,28.32
2022-09-09T12:30:46.335Z,28.13
2022-09-09T12:33:19.075Z,27.67
2022-09-09T12:35:53.816Z,27.65
2022-09-09T12:38:31.979Z,27.71
2022-09-09T12:41:01.675Z,27.78
2022-09-09T12:43:31.371Z,27.89
2022-09-09T12:46:02.621Z,27.91
2022-09-09T12:48:37.820Z,27.92
2022-09-09T12:51:19.416Z,27.79
2022-09-09T12:53:48.806Z,27.55
2022-09-09T12:56:23.969Z,27.50
2022-09-09T12:58:54.657Z,27.27
2022-09-09T13:01:26.323Z,27.27
2022-09-09T13:03:55.915Z,27.27
2022-09-09T13:06:29.319Z,27.27
2022-09-09T13:09:00.951Z,27.21
2022-09-09T13:11:33.450Z,27.05
2022-09-09T13:14:03.012Z,26.93
2022-09-09T13:16:36.703Z,26.85
2022-09-09T13:19:12.254Z,26.64
2022-09-09T13:21:43.717Z,26.54
2022-09-09T13:24:29.622Z,26.41
2022-09-09T13:26:59.446Z,26.30
2022-09-09T13:29:28.292Z,26.19
2022-09-09T13:32:07.327Z,26.00
2022-09-09T13:34:37.583Z,25.94
2022-09-09T13:37:21.528Z,26.03
2022-09-09T13:39:55.050Z,26.04
2022-09-09T13:42:30.346Z,25.90
2022-09-09T13:45:02.346Z,25.96
2022-09-09T13:47:34.725Z,25.95
2022-09-09T13:50:20.509Z,26.10
2022-09-09T13:52:52.634Z,26.13
2022-09-09T13:55:22.838Z,26.16
2022-09-09T13:57:55.680Z,25.97
2022-09-09T14:00:25.299Z,26.06
2022-09-09T14:02:56.117Z,26.07
2022-09-09T14:05:25.115Z,26.04
2022-09-09T14:07:55.697Z,26.07
2022-09-09T14:10:24.535Z,25.99
2022-09-09T14:12:54.054Z,26.04
2022-09-09T14:15:23.114Z,25.99
2022-09-09T14:17:53.375Z,25.91
2022-09-09T14:20:22.322Z,25.81
2022-09-09T14:22:50.993Z,25.74
2022-09-09T14:25:21.376Z,25.54
2022-09-09T14:27:52.369Z,25.41
2022-09-09T14:30:21.393Z,25.33
2022-09-09T14:32:50.374Z,25.25
2022-09-09T14:35:19.503Z,25.18
2022-09-09T14:37:49.980Z,25.17
2022-09-09T14:40:20.374Z,25.11
2022-09-09T14:42:49.270Z,25.00
2022-09-09T14:45:18.218Z,25.05
2022-09-09T14:47:47.029Z,25.00
2022-09-09T14:50:16.102Z,24.94
2022-09-09T14:52:45.303Z,24.83
2022-09-09T14:55:14.303Z,24.79
2022-09-09T14:57:45.160Z,24.72
2022-09-09T15:00:14.723Z,24.68
2022-09-09T15:02:43.737Z,24.68
2022-09-09T15:05:12.775Z,24.65
2022-09-09T15:07:41.670Z,24.55
2022-09-09T15:10:12.158Z,24.58
2022-09-09T15:12:41.240Z,24.52
2022-09-09T15:15:13.907Z,24.51
2022-09-09T15:17:42.853Z,24.35
2022-09-09T15:20:12.359Z,24.37
2022-09-09T15:22:43.349Z,24.30
2022-09-09T15:25:13.815Z,24.23
2022-09-09T15:27:42.980Z,24.16
2022-09-09T15:30:14.495Z,24.09
2022-09-09T15:32:43.427Z,23.99
2022-09-09T15:35:12.223Z,24.02
2022-09-09T15:37:40.964Z,23.93
2022-09-09T15:40:10.858Z,23.83
2022-09-09T15:42:39.790Z,23.71
2022-09-09T15:45:10.287Z,23.64
2022-09-09T15:47:40.789Z,23.57
2022-09-09T15:50:10.161Z,23.50
2022-09-09T15:52:39.105Z,23.40
2022-09-09T15:55:10.695Z,23.39
2022-09-09T15:57:39.817Z,23.31
2022-09-09T16:00:10.158Z,23.24
2022-09-09T16:02:40.716Z,23.09
2022-09-09T16:05:11.552Z,23.10
2022-09-09T16:07:40.495Z,23.01
2022-09-09T16:10:10.250Z,22.87
2022-09-09T16:12:40.642Z,22.88
2022-09-09T16:15:09.695Z,22.80
2022-09-09T16:17:40.311Z,22.73
2022-09-09T16:20:10.368Z,22.67
2022-09-09T16:22:39.472Z,22.64
2022-09-09T16:25:09.118Z,22.63
2022-09-09T16:27:39.308Z,22.60
2022-09-09T16:30:09.582Z,22.56
2022-09-09T16:32:39.962Z,22.53
2022-09-09T16:35:09.477Z,22.45
2022-09-09T16:37:38.282Z,22.38
2022-09-09T16:40:08.559Z,22.32
2022-09-09T16:42:39.669Z,22.27
2022-09-09T16:45:09.741Z,22.24
2022-09-09T16:47:40.243Z,22.19
2022-09-09T16:50:09.957Z,22.22
2022-09-09T16:52:38.957Z,22.09
2022-09-09T16:55:08.457Z,21.98
2022-09-09T16:57:37.402Z,21.91
2022-09-09T17:00:08.187Z,21.87
2022-09-09T17:02:37.179Z,21.69
2022-09-09T17:05:08.249Z,21.72
2022-09-09T17:07:37.778Z,21.74
2022-09-09T17:10:07.556Z,21.76
2022-09-09T17:12:40.716Z,21.73
2022-09-09T17:15:11.831Z,21.70
2022-09-09T17:17:40.746Z,21.72
2022-09-09T17:20:11.688Z,21.66
2022-09-09T17:22:40.488Z,21.72
2022-09-09T17:25:10.804Z,21.68
2022-09-09T17:27:39.801Z,21.63
2022-09-09T17:30:10.409Z,21.63
2022-09-09T17:32:39.355Z,21.55
2022-09-09T17:35:08.761Z,21.49
2022-09-09T17:37:39.099Z,21.44
2022-09-09T17:40:09.619Z,21.44
2022-09-09T17:42:38.974Z,21.41
2022-09-09T17:45:08.816Z,21.41
2022-09-09T17:47:37.817Z,21.44
2022-09-09T17:50:07.778Z,21.42
2022-09-09T17:52:36.790Z,21.37
2022-09-09T17:55:10.196Z,21.35
2022-09-09T17:57:39.707Z,21.32
2022-09-09T18:00:11.627Z,21.31
2022-09-09T18:02:46.343Z,21.31
2022-09-09T18:05:16.465Z,21.28
2022-09-09T18:07:45.385Z,21.25
2022-09-09T18:10:15.745Z,21.24
2022-09-09T18:12:44.506Z,21.24
2022-09-09T18:15:24.143Z,21.22
2022-09-09T18:17:59.378Z,21.20
2022-09-09T18:20:28.426Z,21.21
2022-09-09T18:22:57.328Z,21.19
2022-09-09T18:25:27.745Z,21.18
2022-09-09T18:27:58.672Z,21.18
2022-09-09T18:30:27.815Z,21.17
2022-09-09T18:32:56.899Z,21.13
2022-09-09T18:35:25.911Z,21.13
2022-09-09T18:37:55.339Z,21.12
2022-09-09T18:40:24.327Z,21.16
2022-09-09T18:42:54.751Z,21.11
2022-09-09T18:45:23.781Z,21.06
2022-09-09T18:47:52.736Z,21.05
2022-09-09T18:50:21.734Z,21.07
2022-09-09T18:52:50.653Z,21.00
2022-09-09T18:55:19.811Z,21.00
2022-09-09T18:57:48.739Z,21.00
2022-09-09T19:00:19.337Z,20.99
2022-09-09T19:02:51.535Z,20.97
2022-09-09T19:05:20.753Z,20.98
2022-09-09T19:07:49.712Z,20.97
2022-09-09T19:10:19.578Z,20.96
2022-09-09T19:12:52.014Z,20.94
2022-09-09T19:15:22.885Z,20.92
2022-09-09T19:17:51.727Z,20.92
2022-09-09T19:20:23.907Z,20.99
2022-09-09T19:22:53.242Z,20.96
2022-09-09T19:25:22.446Z,20.88
2022-09-09T19:27:51.602Z,20.91
2022-09-09T19:30:22.292Z,20.90
2022-09-09T19:32:54.114Z,20.91
2022-09-09T19:35:23.358Z,20.92
2022-09-09T19:37:52.444Z,20.92
2022-09-09T19:40:22.311Z,20.89
2022-09-09T19:42:51.461Z,20.90
2022-09-09T19:45:22.121Z,20.88
2022-09-09T19:47:51.367Z,20.85
2022-09-09T19:50:20.446Z,20.83
2022-09-09T19:52:49.441Z,20.82
2022-09-09T19:55:18.665Z,20.82
2022-09-09T19:57:47.506Z,20.83
2022-09-09T20:00:16.557Z,20.78
2022-09-09T20:02:58.148Z,20.78
2022-09-09T20:05:35.746Z,20.81
2022-09-09T20:08:05.009Z,20.81
2022-09-09T20:10:33.830Z,20.76
2022-09-09T20:13:02.665Z,20.76
2022-09-09T20:15:31.647Z,20.72
2022-09-09T20:18:02.023Z,20.57
2022-09-09T20:20:30.985Z,20.44
2022-09-09T20:22:59.794Z,20.43
2022-09-09T20:25:29.554Z,20.39
2022-09-09T20:27:58.255Z,20.36
2022-09-09T20:30:26.966Z,20.41
2022-09-09T20:32:55.743Z,20.44
2022-09-09T20:35:25.972Z,20.48
2022-09-09T20:37:54.810Z,20.48
2022-09-09T20:40:23.879Z,20.50
2022-09-09T20:42:53.009Z,20.48
2022-09-09T20:45:21.884Z,20.48
2022-09-09T20:47:50.822Z,20.38
2022-09-09T20:50:19.681Z,20.35
2022-09-09T20:52:50.065Z,20.37
2022-09-09T20:55:18.884Z,20.37
2022-09-09T20:57:47.542Z,20.37
2022-09-09T21:00:16.763Z,20.38
2022-09-09T21:02:45.587Z,20.34
2022-09-09T21:05:14.878Z,20.27
2022-09-09T21:07:44.429Z,20.26
2022-09-09T21:10:14.778Z,20.18
2022-09-09T21:12:43.516Z,20.08
2022-09-09T21:15:12.818Z,19.96
2022-09-09T21:17:41.706Z,19.93
2022-09-09T21:20:11.358Z,19.99
2022-09-09T21:22:40.778Z,20.01
2022-09-09T21:25:10.475Z,19.93
2022-09-09T21:27:40.668Z,19.85
2022-09-09T21:30:11.559Z,19.83
2022-09-09T21:32:40.403Z,19.75
2022-09-09T21:35:12.191Z,19.65
2022-09-09T21:37:41.229Z,19.65
2022-09-09T21:40:11.050Z,19.62
2022-09-09T21:42:41.325Z,19.61
2022-09-09T21:45:11.316Z,19.56
2022-09-09T21:47:40.084Z,19.54
2022-09-09T21:50:09.289Z,19.59
2022-09-09T21:52:38.247Z,19.71
2022-09-09T21:55:09.324Z,19.73
2022-09-09T21:57:40.454Z,19.75
2022-09-09T22:00:12.652Z,19.78
2022-09-09T22:02:42.070Z,19.76
2022-09-09T22:05:11.418Z,19.76
2022-09-09T22:07:40.937Z,19.63
2022-09-09T22:10:11.910Z,19.58
2022-09-09T22:12:42.195Z,19.57
2022-09-09T22:15:11.753Z,19.61
2022-09-09T22:17:41.317Z,19.67
2022-09-09T22:20:12.402Z,19.61
2022-09-09T22:22:41.666Z,19.53
2022-09-09T22:25:11.091Z,19.42
2022-09-09T22:27:39.808Z,19.44
2022-09-09T22:30:12.319Z,19.46
2022-09-09T22:32:41.092Z,19.50
2022-09-09T22:35:10.843Z,19.48
2022-09-09T22:37:39.663Z,19.55
2022-09-09T22:40:10.536Z,19.57
2022-09-09T22:42:39.469Z,19.47
2022-09-09T22:45:12.022Z,19.38
2022-09-09T22:47:42.753Z,19.32
2022-09-09T22:50:12.342Z,19.26
2022-09-09T22:52:41.485Z,19.17
2022-09-09T22:55:10.777Z,19.12
2022-09-09T22:57:39.686Z,19.11
2022-09-09T23:00:13.729Z,19.10
2022-09-09T23:02:42.657Z,19.16
2022-09-09T23:05:11.644Z,19.19
2022-09-09T23:07:40.710Z,19.26
2022-09-09T23:10:11.287Z,19.22
2022-09-09T23:12:40.559Z,19.26
2022-09-09T23:15:12.540Z,19.26
2022-09-09T23:17:42.380Z,19.32
2022-09-09T23:20:12.088Z,19.26
2022-09-09T23:22:41.076Z,19.26
2022-09-09T23:25:10.507Z,19.22
2022-09-09T23:27:39.223Z,19.15
2022-09-09T23:30:09.311Z,19.10
2022-09-09T23:32:39.901Z,19.14
2022-09-09T23:35:11.530Z,19.05
2022-09-09T23:37:40.660Z,19.11
2022-09-09T23:40:10.265Z,19.05
2022-09-09T23:42:39.412Z,19.11
2022-09-09T23:45:09.755Z,19.05
2022-09-09T23:47:39.989Z,19.04
2022-09-09T23:50:10.184Z,19.07
2022-09-09T23:52:43.018Z,19.01
2022-09-09T23:55:11.916Z,18.93
2022-09-09T23:57:40.706Z,18.80
